Latest Coastal Weather Observations for Bundaberg

IDQ60701

Issued at 1:22 am EST Saturday 29 February 2020 (issued every 10 minutes, with the page automatically refreshed every 10 minutes)

About coastal observations | Map of coastal stations | Coastal observations for QLD | Marine services | Other Formats
Station Details ID: 039128 Name: BUNDABERG AERO Lat: -24.91 Lon: 152.32 Height: 30.82 m
Data from the previous 72 hours. | See also: Recent months at Bundaberg
Date/Time
EST
Wind Sea
Height
m
Swell Vis
km
Cloud Weather Temp
°C
Press
hPa
Rain since
9am
mm
Dir  Spd
kts
Gust
kts
Height
m
Period
s
Dir
29/01:00am SSW 5 7 - - - - 10 - - 23.0 1010.1 0.0
29/12:30am SSW 6 8 - - - - 10 - - 23.3 1010.3 0.0
29/12:00am SSW 5 7 - - - - 10 - - 23.4 1010.4 0.0
 
Date/Time
EST
Wind Sea
Height
m
Swell Vis
km
Cloud Weather Temp
°C
Press
hPa
Rain since
9am
mm
Dir  Spd
kts
Gust
kts
Height
m
Period
s
Dir
28/11:30pm SSW 5 6 - - - - 10 - - 23.4 1010.3 0.0
28/11:00pm SSW 5 7 - - - - 10 Partly cloudy - 23.7 1010.4 0.0
28/10:30pm SW 3 4 - - - - 10 - - 23.8 1010.5 0.0
28/10:00pm SSW 4 6 - - - - 10 - - 24.2 1010.2 0.0
28/09:30pm S 4 5 - - - - 10 - - 24.4 1009.9 0.0
28/09:00pm CALM 0 0 - - - - 10 - - 24.8 1009.4 0.0
28/08:30pm SSE 6 9 - - - - 10 - - 24.8 1008.6 0.0
28/08:00pm SE 7 9 - - - - 10 Partly cloudy - 24.7 1008.3 0.0
28/07:30pm S 6 8 - - - - 10 Partly cloudy - 25.0 1008.5 0.0
28/07:00pm SSW 6 9 - - - - 10 Partly cloudy - 26.4 1008.7 0.0
28/06:30pm SE 5 6 - - - - 10 Partly cloudy - 27.4 1009.1 0.0
28/06:00pm E 5 7 - - - - 10 Mostly clear - 27.8 1007.8 0.0
28/05:30pm E 9 11 - - - - 10 - - 28.1 1006.5 0.0
28/05:00pm ENE 10 12 - - - - 10 - - 28.7 1006.4 0.0
28/04:30pm E 10 13 - - - - 10 - - 29.3 1006.2 0.0
28/04:00pm E 11 15 - - - - 10 - - 30.1 1005.4 0.0
28/03:30pm ENE 11 15 - - - - 10 - - 30.7 1005.6 0.0
28/03:00pm ENE 9 13 - - - - 10 - - 30.8 1005.6 0.0
28/02:30pm E 8 14 - - - - 10 Partly cloudy - 30.5 1006.0 0.0
28/02:00pm ENE 7 11 - - - - 10 - - 30.3 1006.2 0.0
28/01:30pm ENE 9 13 - - - - 10 - - 30.2 1006.3 0.0
28/01:00pm ENE 8 12 - - - - 10 Partly cloudy - 30.6 1006.5 0.0
28/12:30pm E 6 11 - - - - 10 Partly cloudy - 30.0 1006.8 0.0
28/12:00pm SE 6 10 - - - - 10 Mostly clear - 29.7 1007.1 0.0
28/11:30am SE 7 10 - - - - 10 Partly cloudy - 29.0 1007.5 0.0
28/11:00am E 6 9 - - - - 10 Partly cloudy - 28.9 1007.9 0.0
28/10:30am SE 7 10 - - - - 10 Partly cloudy - 28.5 1008.0 0.0
28/10:00am SE 7 10 - - - - 10 Partly cloudy - 27.9 1008.0 0.0
28/09:30am SE 8 11 - - - - 10 Partly cloudy - 27.1 1008.1 0.0
28/09:00am SE 8 10 - - - - 10 Mostly clear - 25.7 1008.3 8.0
28/08:56am SSE 8 10 - - - - 10 Partly cloudy - 25.4 1008.3 8.0
28/08:40am SSE 8 11 - - - - 10 Partly cloudy - 25.4 1008.3 8.0
28/08:30am SSE 7 10 - - - - 10 Partly cloudy - 25.0 1008.2 8.0
28/08:00am S 7 10 - - - - 10 Partly cloudy - 23.8 1008.2 8.0
28/07:30am S 6 8 - - - - 10 - - 22.9 1008.0 8.0
28/07:00am SSW 6 7 - - - - 10 - - 22.0 1007.8 8.0
28/06:30am SSW 4 5 - - - - 10 - - 21.3 1007.5 8.0
28/06:00am S 3 5 - - - - 10 - - 21.0 1007.0 8.0
28/05:30am SW 4 6 - - - - 10 - - 20.9 1007.0 8.0
28/05:00am SSW 4 5 - - - - 10 - - 21.1 1006.9 8.0
28/04:30am SSW 5 7 - - - - 10 - - 21.2 1006.8 8.0
28/04:00am S 5 6 - - - - 10 - - 21.3 1006.3 8.0
28/03:30am SSW 6 9 - - - - 10 - - 21.4 1006.2 8.0
28/03:00am SSW 4 6 - - - - 10 - - 21.5 1006.5 7.8
28/02:30am SW 4 6 - - - - 10 - - 21.5 1006.5 7.8
28/02:00am SW 5 6 - - - - 10 - - 21.5 1006.4 7.8
28/01:30am WSW 5 5 - - - - 10 Partly cloudy - 21.6 1006.6 7.8
28/01:00am SW 2 5 - - - - 10 Partly cloudy - 21.6 1007.1 7.8
28/12:30am CALM 0 0 - - - - 10 - - 21.4 1007.6 7.8
28/12:00am SW 3 4 - - - - 10 - - 21.5 1007.5 7.8
 
Date/Time
EST
Wind Sea
Height
m
Swell Vis
km
Cloud Weather Temp
°C
Press
hPa
Rain since
9am
mm
Dir  Spd
kts
Gust
kts
Height
m
Period
s
Dir
27/11:30pm SSW 5 6 - - - - 10 - - 21.6 1007.9 7.8
27/11:00pm SW 1 4 - - - - 10 - - 21.7 1007.3 7.8
27/10:30pm CALM 0 0 - - - - 10 - - 21.8 1006.7 7.8
27/10:00pm WSW 6 9 - - - - 10 - - 21.8 1008.2 7.8
27/09:30pm E 9 11 - - - - 10 Partly cloudy - 21.9 1008.0 7.8
27/09:00pm SSE 7 11 - - - - 10 Cloudy Drizzle 21.9 1009.4 7.8
27/08:30pm SE 11 14 - - - - 10 - - 22.2 1008.7 7.8
27/08:00pm S 7 13 - - - - 10 Partly cloudy - 22.6 1007.4 7.8
27/07:30pm SW 7 10 - - - - 10 Partly cloudy - 22.4 1006.9 7.2
27/07:00pm SE 6 11 - - - - 10 Partly cloudy - 22.3 1006.9 7.2
27/06:38pm SE 13 18 - - - - 10 Partly cloudy - 22.4 1006.9 7.0
27/06:30pm SE 16 24 - - - - 10 Partly cloudy - 22.3 1006.5 6.8
27/06:17pm SSE 9 23 - - - - 10 Partly cloudy - 23.3 1006.5 6.6
27/06:00pm WSW 3 4 - - - - 10 Cloudy Showers 26.2 1005.7 6.6
27/05:41pm NW 7 9 - - - - 10 Partly cloudy - 26.2 1005.2 6.6
27/05:30pm N 8 10 - - - - 10 Partly cloudy - 27.1 1005.1 6.4
27/05:00pm NNE 9 12 - - - - 10 Partly cloudy - 27.7 1005.2 5.0
27/04:32pm NE 9 12 - - - - 10 Partly cloudy - 27.2 1004.8 4.8
27/04:30pm NE 9 12 - - - - 10 Partly cloudy - 27.4 1004.9 4.8
27/04:13pm NNE 10 14 - - - - 5 Partly cloudy - 27.4 1004.7 4.0
27/04:00pm NE 11 15 - - - - 10 Partly cloudy - 29.1 1004.6 0.8
27/03:33pm NE 11 13 - - - - 10 - - 29.8 1004.2 0.8
27/03:30pm NE 10 13 - - - - 10 - - 30.0 1004.3 0.8
27/03:14pm NE 10 13 - - - - 5 - - 29.7 1004.1 0.8
27/03:00pm NNE 10 13 - - - - 10 - Rain 29.7 1004.5 0.8
27/02:30pm NNE 10 15 - - - - 10 Partly cloudy - 30.1 1004.7 0.8
27/02:00pm NE 6 10 - - - - 7 Partly cloudy - 30.2 1005.0 0.8
27/01:30pm W 5 7 - - - - 10 Partly cloudy - 31.9 1005.0 0.8
27/01:00pm WSW 4 7 - - - - 10 Partly cloudy - 32.0 1005.5 0.8
27/12:30pm NW 6 9 - - - - 10 Partly cloudy - 31.2 1006.1 0.8
27/12:00pm NW 5 8 - - - - 10 Partly cloudy - 30.7 1006.6 0.8
27/11:30am SW 5 9 - - - - 10 - - 30.7 1007.1 0.8
27/11:00am SSW 5 7 - - - - 10 - - 29.5 1007.6 0.8
27/10:30am SSW 7 12 - - - - 10 - - 29.3 1008.0 0.6
27/10:00am S 7 10 - - - - 10 Partly cloudy - 28.4 1008.3 0.6
27/09:30am S 7 9 - - - - 7 Partly cloudy - 25.7 1008.5 0.6
27/09:21am SSW 7 12 - - - - 10 Partly cloudy - 26.2 1008.5 0.0
27/09:00am SW 5 9 - - - - 10 Cloudy - 26.8 1008.7 0.0
27/08:58am SW 5 8 - - - - 10 Partly cloudy - 26.8 1008.6 0.0
27/08:30am SW 4 6 - - - - 10 Partly cloudy - 26.4 1008.8 0.0
27/08:00am W 5 6 - - - - 10 Cloudy - 25.9 1008.3 0.0
27/07:30am WNW 4 5 - - - - 10 Partly cloudy - 25.6 1008.0 0.0
27/07:04am NE 2 5 - - - - 10 Partly cloudy - 24.9 1008.1 0.0
27/07:00am NE 4 7 - - - - 10 Partly cloudy - 24.9 1008.0 0.0
27/06:30am ENE 7 11 - - - - 10 Partly cloudy - 24.8 1007.5 0.0
27/06:00am SE 3 4 - - - - 10 Cloudy - 24.8 1007.2 0.0
27/05:30am SSE 3 4 - - - - 10 Partly cloudy - 24.7 1007.1 0.0
27/05:00am S 5 6 - - - - 10 Partly cloudy - 24.6 1007.0 0.0
27/04:30am SE 5 6 - - - - 10 Cloudy - 24.5 1006.9 0.0
27/04:00am SSE 4 5 - - - - 10 Partly cloudy - 24.6 1006.8 0.0
27/03:30am SE 4 5 - - - - 10 Partly cloudy - 24.6 1006.5 0.0
27/03:00am SSW 1 4 - - - - 10 - - 25.0 1006.6 0.0
27/02:35am CALM 0 0 - - - - 10 Partly cloudy - 25.1 1006.7 0.0
27/02:30am CALM 0 0 - - - - 10 Partly cloudy - 25.2 1006.8 0.0
27/02:06am CALM 0 0 - - - - 10 Partly cloudy - 25.2 1007.2 0.0
27/02:00am CALM 0 0 - - - - 10 Partly cloudy - 25.2 1007.3 0.0
27/01:30am WNW 1 3 - - - - 10 - - 25.5 1007.5 0.0
27/01:00am WNW 4 5 - - - - 10 - - 25.7 1007.4 0.0
27/12:30am NW 4 6 - - - - 10 Partly cloudy - 26.0 1007.8 0.0
27/12:00am NNW 6 8 - - - - 10 Mostly clear - 26.1 1008.0 0.0
 
Date/Time
EST
Wind Sea
Height
m
Swell Vis
km
Cloud Weather Temp
°C
Press
hPa
Rain since
9am
mm
Dir  Spd
kts
Gust
kts
Height
m
Period
s
Dir
26/11:30pm NNW 7 8 - - - - 10 Partly cloudy - 26.3 1007.8 0.0
26/11:00pm NNW 5 6 - - - - 10 - - 26.3 1008.5 0.0
26/10:30pm NNW 5 6 - - - - 10 - - 26.6 1009.1 0.0
26/10:00pm N 5 8 - - - - 10 Partly cloudy - 27.0 1009.4 0.0
26/09:30pm N 7 9 - - - - 10 Partly cloudy - 27.2 1009.1 0.0
26/09:00pm NNE 6 9 - - - - 10 Cloudy - 27.2 1009.7 0.0
26/08:30pm N 5 8 - - - - 10 Partly cloudy - 27.2 1009.4 0.0
26/08:00pm NE 8 10 - - - - 10 - - 27.1 1008.1 0.0
26/07:30pm NNE 7 9 - - - - 10 Partly cloudy - 27.2 1008.5 0.0
26/07:00pm NNE 6 8 - - - - 10 - - 27.2 1007.9 0.0
26/06:30pm NNE 8 9 - - - - 10 - - 27.3 1007.5 0.0
26/06:00pm NNE 9 12 - - - - 10 - - 27.5 1007.4 0.0
26/05:30pm NNE 9 11 - - - - 10 - - 28.2 1007.2 0.0
26/05:00pm N 10 13 - - - - 10 - - 29.3 1006.8 0.0
26/04:30pm NNE 10 13 - - - - 10 - - 29.3 1006.4 0.0
26/04:00pm NNE 10 13 - - - - 10 - - 29.3 1006.3 0.0
26/03:30pm NNE 10 13 - - - - 10 Partly cloudy - 30.4 1006.4 0.0
26/03:00pm NNE 9 12 - - - - 10 Cloudy - 29.7 1006.8 0.0
26/02:30pm NE 9 15 - - - - 10 Partly cloudy - 30.3 1007.2 0.0
26/02:00pm NNE 9 12 - - - - 10 Partly cloudy - 30.2 1007.5 0.0
26/01:30pm NE 8 10 - - - - 10 Partly cloudy - 29.6 1007.9 0.0
26/01:00pm NE 7 9 - - - - 10 Partly cloudy - 30.5 1008.3 0.0
26/12:30pm NE 3 6 - - - - 10 Partly cloudy - 30.3 1008.8 0.0
26/12:00pm WNW 2 4 - - - - 10 Cloudy - 30.5 1009.4 0.0
26/11:30am S 4 6 - - - - 10 Partly cloudy - 29.6 1009.8 0.0
26/11:00am SSE 3 6 - - - - 10 Cloudy - 30.2 1010.0 0.0
26/10:30am CALM 0 3 - - - - 10 Partly cloudy - 28.6 1010.4 0.0
26/10:00am ESE 3 5 - - - - 10 Partly cloudy - 28.3 1010.6 0.0
26/09:30am SSW 1 5 - - - - 10 Partly cloudy - 28.1 1010.9 0.0
26/09:00am ESE 4 6 - - - - 10 Mostly cloudy - 27.3 1010.9 0.2
26/08:30am SE 5 8 - - - - 10 - - 26.8 1010.9 0.2
26/08:00am SSE 6 8 - - - - 10 Partly cloudy - 25.6 1010.9 0.2
26/07:30am S 6 8 - - - - 10 Partly cloudy - 24.6 1010.9 0.2
26/07:00am S 6 9 - - - - 10 Partly cloudy - 23.4 1010.8 0.2
26/06:30am SSW 6 7 - - - - 10 Partly cloudy - 22.9 1010.5 0.2
26/06:00am S 6 7 - - - - 10 Mostly cloudy - 22.5 1010.6 0.2
26/05:30am S 5 6 - - - - 10 Cloudy - 22.5 1010.3 0.2
26/05:00am SSW 5 7 - - - - 10 Partly cloudy - 22.6 1010.3 0.2
26/04:30am SSW 5 7 - - - - 10 Partly cloudy - 22.6 1010.3 0.2
26/04:00am S 6 7 - - - - 10 Cloudy - 22.6 1009.9 0.2
26/03:30am S 6 8 - - - - 10 Partly cloudy - 22.5 1009.7 0.2
26/03:00am SSW 5 7 - - - - 10 Cloudy - 22.7 1009.9 0.2
26/02:30am SSW 4 6 - - - - 10 Cloudy - 22.6 1009.9 0.2
26/02:00am SW 4 5 - - - - 10 Cloudy - 22.5 1010.1 0.2
26/01:30am S 4 6 - - - - 10 Partly cloudy - 22.4 1010.4 0.2

Other formats

Comma delimited format used in spreadsheet applications
http://www.bom.gov.au/fwo/IDQ60701/IDQ60701.94387.axf

JavaScript Object Notation format (JSON) in row-major order
http://www.bom.gov.au/fwo/IDQ60701/IDQ60701.94387.json

Data quality

Most of these data are generated automatically and are frequently updated. Quality checks on data are not normally performed. It is possible for incorrect values to appear. Refer to information at About Latest Weather Observations and please check the disclaimer before using these data.